Time;durP1;ratioP1;P1;durP2;ratioP2;P2;SDS_P1;SDS_P2;PMS_P1;PMS_P2;Temp;Humidity;BMP_temperature;BMP_pressure;BME280_temperature;BME280_humidity;BME280_pressure;Samples;Min_cycle;Max_cycle;Signal;HPM_P1;HPM_P2
2024/02/02 00:02:23;;;;;;;11.68;2.55;;;5.50;95.80;;;;;;5066299;28;20108;-55
2024/02/02 00:04:49;;;;;;;12.35;2.65;;;5.50;95.80;;;;;;5068027;28;20099;-53
2024/02/02 00:07:14;;;;;;;15.07;3.15;;;5.50;95.90;;;;;;5072369;28;20243;-55
2024/02/02 00:09:39;;;;;;;12.98;3.10;;;5.50;95.70;;;;;;5071158;28;20047;-52
2024/02/02 00:12:10;;;;;;;14.10;2.35;;;5.50;95.90;;;;;;5072398;28;20077;-53
2024/02/02 00:14:36;;;;;;;11.00;2.38;;;5.40;95.70;;;;;;5072517;28;20024;-50
2024/02/02 00:17:02;;;;;;;12.80;3.67;;;5.30;95.90;;;;;;5064030;28;20036;-55
2024/02/02 00:19:27;;;;;;;17.13;2.70;;;5.20;95.70;;;;;;5066573;28;20021;-53
2024/02/02 00:21:53;;;;;;;18.15;4.30;;;5.10;96.00;;;;;;5067186;28;20046;-53
2024/02/02 00:24:18;;;;;;;15.52;2.63;;;5.00;95.90;;;;;;5063286;28;20031;-53
2024/02/02 00:26:44;;;;;;;15.20;3.80;;;4.90;96.00;;;;;;5064745;28;20126;-54
2024/02/02 00:29:09;;;;;;;14.00;2.92;;;4.80;96.40;;;;;;5064109;28;20047;-52
2024/02/02 00:31:35;;;;;;;18.15;2.83;;;4.70;96.90;;;;;;5065588;28;20046;-54
2024/02/02 00:34:00;;;;;;;16.90;3.65;;;4.50;98.10;;;;;;5067175;28;20679;-53
2024/02/02 00:36:26;;;;;;;16.60;3.55;;;4.50;97.80;;;;;;5076508;28;20093;-54
2024/02/02 00:38:51;;;;;;;19.73;4.00;;;4.40;98.20;;;;;;5078173;28;20024;-54
2024/02/02 00:41:17;;;;;;;13.90;3.58;;;4.40;98.50;;;;;;5074791;28;20374;-48
2024/02/02 00:43:42;;;;;;;19.05;3.42;;;4.40;99.30;;;;;;5063614;28;20078;-55
2024/02/02 00:46:08;;;;;;;14.68;3.55;;;4.30;99.40;;;;;;5066019;28;20031;-54
2024/02/02 00:48:34;;;;;;;16.35;2.92;;;4.20;99.00;;;;;;5063676;28;20033;-52
2024/02/02 00:51:00;;;;;;;16.08;3.00;;;4.10;99.40;;;;;;5066491;28;20070;-54
2024/02/02 00:53:26;;;;;;;16.30;3.08;;;4.10;99.50;;;;;;5065694;28;20027;-54
2024/02/02 00:55:51;;;;;;;8.95;2.08;;;4.00;99.60;;;;;;5062715;28;20024;-55
2024/02/02 00:58:17;;;;;;;16.83;3.17;;;4.00;99.80;;;;;;5073943;28;20111;-53
2024/02/02 01:00:42;;;;;;;10.98;2.28;;;4.00;99.90;;;;;;5063395;28;20118;-52
2024/02/02 01:06:14;;;;;;;9.68;2.33;;;3.90;99.90;;;;;;5418488;22;20051;-56
2024/02/02 01:08:40;;;;;;;12.77;3.05;;;3.80;99.90;;;;;;5064428;28;20052;-57
2024/02/02 01:11:06;;;;;;;16.35;2.42;;;3.80;99.90;;;;;;5065514;28;20043;-56
2024/02/02 01:13:31;;;;;;;16.98;2.60;;;3.80;99.90;;;;;;5061743;28;20064;-67
2024/02/02 01:15:57;;;;;;;14.45;2.47;;;3.80;99.90;;;;;;5065092;28;20040;-68
2024/02/02 01:18:22;;;;;;;9.18;2.30;;;3.80;99.90;;;;;;5065123;28;20056;-68
2024/02/02 01:20:47;;;;;;;13.05;2.33;;;3.80;99.90;;;;;;5065280;28;20032;-61
2024/02/02 01:23:13;;;;;;;15.90;2.40;;;3.90;99.90;;;;;;5065547;28;20039;-60
2024/02/02 01:25:38;;;;;;;18.20;2.75;;;3.90;99.90;;;;;;5046749;28;20508;-53
2024/02/02 01:28:04;;;;;;;11.10;2.97;;;4.00;99.90;;;;;;5064690;28;20036;-54
2024/02/02 01:30:30;;;;;;;11.75;2.95;;;4.00;99.90;;;;;;5065314;28;20025;-55
2024/02/02 01:32:56;;;;;;;17.02;3.58;;;4.00;99.90;;;;;;5065276;28;20033;-56
2024/02/02 01:35:22;;;;;;;13.00;2.50;;;4.00;99.90;;;;;;5055848;28;20044;-55
2024/02/02 01:37:47;;;;;;;13.63;2.50;;;4.10;99.90;;;;;;5058615;28;20027;-54
2024/02/02 01:40:16;;;;;;;17.85;2.35;;;4.10;99.90;;;;;;5056800;28;20392;-56
2024/02/02 01:42:42;;;;;;;14.05;3.10;;;4.10;99.90;;;;;;5056785;28;20078;-54
2024/02/02 01:45:08;;;;;;;20.77;3.38;;;4.20;99.90;;;;;;5052478;28;20104;-56
2024/02/02 01:47:34;;;;;;;11.95;2.50;;;4.20;99.90;;;;;;5056522;28;20119;-56
2024/02/02 01:50:00;;;;;;;20.88;3.10;;;4.20;99.90;;;;;;5057151;28;20571;-57
2024/02/02 01:52:26;;;;;;;22.05;2.85;;;4.20;99.90;;;;;;5056669;28;20028;-55
2024/02/02 01:54:52;;;;;;;15.05;2.38;;;4.20;99.90;;;;;;5058518;28;20029;-57
2024/02/02 01:57:19;;;;;;;12.60;2.75;;;4.20;99.90;;;;;;5058638;28;20186;-53
2024/02/02 01:59:44;;;;;;;16.38;3.10;;;4.20;99.90;;;;;;5060793;28;20083;-54
2024/02/02 02:02:12;;;;;;;12.95;2.78;;;4.30;99.90;;;;;;5060554;28;20044;-55
2024/02/02 02:04:40;;;;;;;9.68;2.50;;;4.30;99.90;;;;;;5058442;28;20095;-57
2024/02/02 02:07:05;;;;;;;20.13;3.13;;;4.30;99.90;;;;;;5032179;28;20087;-56
2024/02/02 02:09:31;;;;;;;22.02;3.15;;;4.30;99.90;;;;;;5019301;28;20110;-54
2024/02/02 02:11:56;;;;;;;16.55;2.70;;;4.40;99.90;;;;;;5038042;28;20311;-56
2024/02/02 02:14:22;;;;;;;12.75;2.50;;;4.40;99.90;;;;;;5030420;28;20556;-54
2024/02/02 02:16:50;;;;;;;16.25;3.38;;;4.40;99.90;;;;;;5017598;28;20029;-52
2024/02/02 02:19:16;;;;;;;17.33;3.25;;;4.50;99.90;;;;;;5030302;28;20481;-54
2024/02/02 02:21:41;;;;;;;15.20;3.22;;;4.50;99.90;;;;;;5033732;28;20032;-56
2024/02/02 02:24:08;;;;;;;16.23;3.67;;;4.50;99.90;;;;;;5039874;28;20048;-55
2024/02/02 02:26:34;;;;;;;11.98;2.58;;;4.50;99.90;;;;;;5041594;28;20021;-56
2024/02/02 02:29:00;;;;;;;18.40;2.92;;;4.60;99.90;;;;;;5040624;28;20024;-55
2024/02/02 02:31:25;;;;;;;16.67;3.05;;;4.50;99.90;;;;;;5039953;28;20516;-56
2024/02/02 02:33:51;;;;;;;14.27;3.10;;;4.60;99.90;;;;;;5039708;28;20741;-56
2024/02/02 02:36:16;;;;;;;13.75;2.70;;;4.60;99.90;;;;;;5039901;28;20028;-56
2024/02/02 02:38:44;;;;;;;15.75;2.80;;;4.70;99.90;;;;;;5041890;28;20104;-56
2024/02/02 02:41:10;;;;;;;11.10;3.08;;;4.70;99.90;;;;;;5039887;28;20056;-55
2024/02/02 02:43:35;;;;;;;19.83;4.45;;;4.80;99.90;;;;;;5039679;28;20694;-57
2024/02/02 02:46:02;;;;;;;11.15;2.65;;;4.80;99.90;;;;;;5040157;28;20071;-54
2024/02/02 02:48:27;;;;;;;17.15;2.78;;;4.80;99.90;;;;;;5039858;28;20021;-57
2024/02/02 02:50:53;;;;;;;16.38;3.67;;;4.80;99.90;;;;;;5039720;28;20544;-54
2024/02/02 02:53:18;;;;;;;15.23;3.10;;;4.90;99.90;;;;;;5039597;28;20025;-54
2024/02/02 02:55:44;;;;;;;9.77;2.95;;;4.90;99.90;;;;;;5041766;28;20075;-57
2024/02/02 02:58:09;;;;;;;13.82;3.00;;;4.90;99.90;;;;;;5034951;28;20501;-54
2024/02/02 03:00:35;;;;;;;14.30;3.03;;;4.90;99.90;;;;;;5039354;28;20254;-57
2024/02/02 03:03:01;;;;;;;15.25;3.42;;;4.90;99.90;;;;;;5039531;28;20048;-54
2024/02/02 03:05:28;;;;;;;15.15;2.72;;;5.00;99.90;;;;;;5036558;28;20074;-53
2024/02/02 03:07:54;;;;;;;14.75;3.63;;;5.00;99.90;;;;;;5038585;28;20123;-55
2024/02/02 03:10:25;;;;;;;17.38;3.28;;;5.00;99.90;;;;;;5040960;28;20498;-56
2024/02/02 03:12:54;;;;;;;18.48;3.70;;;5.10;99.90;;;;;;5037448;28;20170;-55
2024/02/02 03:15:20;;;;;;;14.88;3.30;;;5.00;99.90;;;;;;5036604;28;20037;-57
2024/02/02 03:17:47;;;;;;;12.38;3.20;;;5.10;99.90;;;;;;5031325;28;20494;-51
2024/02/02 03:20:12;;;;;;;11.73;2.70;;;5.10;99.90;;;;;;5019322;28;20490;-56
2024/02/02 03:22:38;;;;;;;15.45;3.67;;;5.10;99.90;;;;;;5033188;28;20029;-56
2024/02/02 03:25:07;;;;;;;13.52;3.58;;;5.10;99.90;;;;;;5038251;28;20481;-55
2024/02/02 03:27:33;;;;;;;13.05;3.35;;;5.10;99.90;;;;;;5038861;28;20021;-54
2024/02/02 03:29:59;;;;;;;12.07;4.07;;;5.10;99.90;;;;;;5032639;28;20516;-57
2024/02/02 03:32:24;;;;;;;14.40;3.25;;;5.10;99.90;;;;;;5032850;28;20067;-56
2024/02/02 03:34:50;;;;;;;12.05;3.95;;;5.10;99.90;;;;;;5033521;28;20221;-53
2024/02/02 03:37:16;;;;;;;21.10;4.25;;;5.10;99.90;;;;;;5035237;28;20064;-56
2024/02/02 03:39:42;;;;;;;22.05;3.90;;;5.10;99.90;;;;;;5020672;28;20112;-55
2024/02/02 03:42:08;;;;;;;14.15;3.50;;;5.10;99.90;;;;;;5038682;28;20468;-56
2024/02/02 03:44:33;;;;;;;13.15;3.35;;;5.10;99.90;;;;;;5038707;28;20113;-54
2024/02/02 03:46:58;;;;;;;12.98;3.65;;;5.10;99.90;;;;;;5040907;28;20029;-56
2024/02/02 03:49:24;;;;;;;11.65;3.78;;;5.10;99.90;;;;;;5038559;28;20108;-55
2024/02/02 03:51:49;;;;;;;17.98;4.38;;;5.20;99.90;;;;;;5031876;28;20036;-57
2024/02/02 03:54:15;;;;;;;14.75;3.72;;;5.20;99.90;;;;;;5036470;28;20166;-57
2024/02/02 03:56:42;;;;;;;11.50;3.22;;;5.10;99.90;;;;;;5030455;28;20025;-55
2024/02/02 03:59:09;;;;;;;16.75;4.30;;;5.20;99.90;;;;;;5033992;28;20021;-57
2024/02/02 04:01:35;;;;;;;15.05;4.28;;;5.10;99.90;;;;;;5036558;28;20409;-55
2024/02/02 04:04:00;;;;;;;22.10;3.58;;;5.20;99.90;;;;;;5034765;28;20040;-56
2024/02/02 04:06:26;;;;;;;14.32;3.85;;;5.20;99.90;;;;;;5033426;28;20033;-55
2024/02/02 04:08:51;;;;;;;17.15;4.63;;;5.20;99.90;;;;;;5029885;28;20029;-57
2024/02/02 04:11:17;;;;;;;12.45;4.18;;;5.20;99.90;;;;;;5029230;28;20096;-56
2024/02/02 04:13:42;;;;;;;11.27;3.88;;;5.20;99.90;;;;;;5024425;28;20026;-57
2024/02/02 04:16:08;;;;;;;14.63;4.07;;;5.20;99.90;;;;;;5039919;28;20540;-57
2024/02/02 04:18:33;;;;;;;15.50;4.70;;;5.20;99.90;;;;;;5029598;28;20052;-55
2024/02/02 04:20:59;;;;;;;16.38;4.45;;;5.20;99.90;;;;;;5031399;28;20030;-55
2024/02/02 04:23:25;;;;;;;18.65;5.18;;;5.20;99.90;;;;;;5032553;28;20033;-55
2024/02/02 04:25:50;;;;;;;13.73;4.68;;;5.10;99.90;;;;;;5029493;28;20243;-56
2024/02/02 04:28:16;;;;;;;13.85;4.35;;;5.10;99.90;;;;;;5035284;28;20033;-55
2024/02/02 04:30:42;;;;;;;19.70;5.47;;;5.00;99.90;;;;;;5017771;28;20021;-57
2024/02/02 04:33:07;;;;;;;16.88;5.15;;;5.00;99.90;;;;;;5033611;28;20024;-56
2024/02/02 04:35:34;;;;;;;17.50;4.53;;;4.90;99.90;;;;;;5031705;28;20058;-54
2024/02/02 04:38:01;;;;;;;22.55;4.75;;;4.90;99.90;;;;;;5032270;28;20478;-57
2024/02/02 04:40:27;;;;;;;16.42;4.85;;;4.90;99.90;;;;;;5032178;28;20115;-56
2024/02/02 04:42:52;;;;;;;16.77;4.85;;;4.90;99.90;;;;;;5029972;28;20594;-56
2024/02/02 04:45:18;;;;;;;16.08;5.00;;;4.80;99.90;;;;;;5033523;28;20149;-55
2024/02/02 04:47:43;;;;;;;13.45;4.22;;;4.80;99.90;;;;;;5032221;28;20052;-56
2024/02/02 04:50:09;;;;;;;18.58;5.10;;;4.90;99.90;;;;;;5029695;28;20043;-56
2024/02/02 04:52:34;;;;;;;11.75;4.03;;;4.90;99.90;;;;;;5031373;28;20025;-55
2024/02/02 04:55:00;;;;;;;15.10;4.03;;;4.90;99.90;;;;;;5032681;28;20116;-57
2024/02/02 04:57:25;;;;;;;12.35;3.53;;;4.90;99.90;;;;;;5029460;28;20121;-56
2024/02/02 04:59:51;;;;;;;16.58;3.65;;;4.90;99.90;;;;;;5035420;28;20029;-54
2024/02/02 05:02:16;;;;;;;11.55;3.42;;;5.00;99.90;;;;;;5030679;28;20021;-55
2024/02/02 05:04:42;;;;;;;18.67;4.05;;;5.00;99.90;;;;;;5040263;28;20082;-57
2024/02/02 05:07:08;;;;;;;21.73;4.43;;;5.00;99.90;;;;;;5037262;28;20041;-57
2024/02/02 05:09:33;;;;;;;14.93;4.38;;;5.00;99.90;;;;;;5033545;28;20107;-56
2024/02/02 05:11:59;;;;;;;14.27;4.40;;;5.00;99.90;;;;;;5037255;28;20492;-53
2024/02/02 05:14:24;;;;;;;15.23;4.40;;;5.00;99.90;;;;;;5031701;28;20048;-55
2024/02/02 05:16:50;;;;;;;12.80;4.32;;;5.10;99.90;;;;;;5039264;28;20041;-57
2024/02/02 05:19:15;;;;;;;19.45;4.90;;;5.10;99.90;;;;;;5037696;28;20025;-53
2024/02/02 05:21:41;;;;;;;17.20;4.53;;;5.10;99.90;;;;;;5037518;28;20087;-68
2024/02/02 05:24:06;;;;;;;13.45;5.10;;;5.10;99.90;;;;;;5037232;28;20074;-68
2024/02/02 05:26:32;;;;;;;17.70;5.25;;;5.10;99.90;;;;;;5018883;28;20035;-70
2024/02/02 05:28:57;;;;;;;21.88;6.25;;;5.10;99.90;;;;;;5037717;28;20029;-68
2024/02/02 05:31:23;;;;;;;13.32;5.40;;;5.10;99.90;;;;;;5041670;28;20093;-68
2024/02/02 05:33:48;;;;;;;13.52;5.55;;;5.10;99.90;;;;;;5041304;28;20028;-68
2024/02/02 05:36:14;;;;;;;15.32;4.20;;;5.10;99.90;;;;;;5041538;28;20033;-67
2024/02/02 05:38:40;;;;;;;14.10;4.38;;;5.10;99.90;;;;;;5041341;28;20098;-67
2024/02/02 05:41:06;;;;;;;12.48;4.68;;;5.10;99.90;;;;;;5041277;28;20017;-67
2024/02/02 05:43:31;;;;;;;11.95;4.28;;;5.10;99.90;;;;;;5043318;28;20025;-66
2024/02/02 05:45:58;;;;;;;16.08;5.38;;;5.10;99.90;;;;;;5043098;28;20083;-67
2024/02/02 05:48:24;;;;;;;15.38;3.83;;;5.10;99.90;;;;;;5041332;28;20052;-67
2024/02/02 05:50:49;;;;;;;19.67;4.90;;;5.10;99.90;;;;;;5040943;28;20049;-67
2024/02/02 05:53:15;;;;;;;8.05;4.38;;;5.10;99.90;;;;;;5041586;28;20025;-67
2024/02/02 05:55:41;;;;;;;18.95;4.53;;;5.10;99.90;;;;;;5041039;28;20389;-68
2024/02/02 05:58:07;;;;;;;15.68;4.30;;;5.10;99.90;;;;;;5041035;28;20033;-68
2024/02/02 06:00:33;;;;;;;14.27;3.95;;;5.10;99.90;;;;;;5043185;28;20029;-67
2024/02/02 06:02:58;;;;;;;16.63;4.30;;;5.10;99.90;;;;;;5033167;28;20044;-69
2024/02/02 06:05:24;;;;;;;15.20;3.75;;;5.10;99.90;;;;;;5037760;28;20040;-67
2024/02/02 06:07:49;;;;;;;15.88;4.20;;;5.10;99.90;;;;;;5034859;28;20049;-68
2024/02/02 06:10:14;;;;;;;14.15;4.40;;;5.10;99.90;;;;;;5036099;28;20494;-65
2024/02/02 06:12:40;;;;;;;17.95;4.10;;;5.10;99.90;;;;;;5028873;28;20051;-65
2024/02/02 06:15:07;;;;;;;20.33;5.00;;;5.20;99.90;;;;;;5034375;28;20033;-65
2024/02/02 06:17:32;;;;;;;15.80;4.35;;;5.10;99.90;;;;;;5030524;28;20048;-65
2024/02/02 06:19:58;;;;;;;15.45;4.45;;;5.10;99.90;;;;;;5036236;28;20471;-65
2024/02/02 06:22:24;;;;;;;11.88;3.50;;;5.20;99.90;;;;;;5040236;28;20033;-65
2024/02/02 06:24:49;;;;;;;9.50;4.20;;;5.10;99.90;;;;;;5038357;28;20022;-65
2024/02/02 06:27:15;;;;;;;13.45;4.50;;;5.10;99.90;;;;;;5040591;28;20056;-65
2024/02/02 06:29:41;;;;;;;11.20;4.20;;;5.20;99.90;;;;;;5039935;28;20383;-65
2024/02/02 06:32:06;;;;;;;15.43;4.88;;;5.20;99.90;;;;;;5039946;28;20047;-65
2024/02/02 06:34:32;;;;;;;12.65;4.65;;;5.20;99.90;;;;;;5023716;28;20398;-65
2024/02/02 06:36:57;;;;;;;12.38;4.18;;;5.20;99.90;;;;;;5033355;28;20022;-65
2024/02/02 06:39:23;;;;;;;15.07;4.20;;;5.20;99.90;;;;;;5032344;28;20037;-65
2024/02/02 06:41:49;;;;;;;11.30;4.07;;;5.20;99.90;;;;;;5036993;28;20580;-65
2024/02/02 06:44:16;;;;;;;12.45;4.10;;;5.20;99.90;;;;;;5031587;28;20025;-65
2024/02/02 06:46:41;;;;;;;16.88;4.80;;;5.30;99.90;;;;;;5036615;28;20400;-65
2024/02/02 06:49:07;;;;;;;16.48;4.95;;;5.30;99.90;;;;;;5037529;28;20025;-65
2024/02/02 06:51:32;;;;;;;18.70;5.60;;;5.30;99.90;;;;;;5032672;28;20040;-64
2024/02/02 06:53:58;;;;;;;14.32;4.38;;;5.30;99.90;;;;;;5039025;28;20440;-65
2024/02/02 06:56:39;;;;;;;11.93;3.65;;;5.30;99.90;;;;;;5033591;28;20044;-65
2024/02/02 06:59:06;;;;;;;15.98;4.20;;;5.30;99.90;;;;;;5034359;28;20017;-65
2024/02/02 07:01:31;;;;;;;17.65;5.13;;;5.40;99.90;;;;;;5038848;28;20083;-65
2024/02/02 07:03:57;;;;;;;14.60;4.47;;;5.40;99.90;;;;;;5040377;28;20033;-65
2024/02/02 07:06:23;;;;;;;13.85;5.30;;;5.40;99.90;;;;;;5039023;28;20231;-65
2024/02/02 07:08:49;;;;;;;21.67;4.55;;;5.40;99.90;;;;;;5039370;28;20037;-64
2024/02/02 07:11:49;;;;;;;15.27;4.30;;;5.40;99.90;;;;;;5041398;28;20040;-65
2024/02/02 07:14:35;;;;;;;16.85;4.88;;;5.40;99.90;;;;;;5036005;28;20021;-65
2024/02/02 07:17:01;;;;;;;18.85;5.05;;;5.40;99.90;;;;;;5037103;28;20020;-65
2024/02/02 07:19:39;;;;;;;19.88;5.65;;;5.50;99.90;;;;;;5039192;28;20060;-65
2024/02/02 07:22:26;;;;;;;16.77;4.47;;;5.50;99.90;;;;;;5020929;28;20033;-65
2024/02/02 07:24:52;;;;;;;16.65;5.05;;;5.50;99.90;;;;;;5027711;28;20026;-58
2024/02/02 07:27:51;;;;;;;14.43;4.25;;;5.50;99.90;;;;;;5040907;28;20040;-58
2024/02/02 07:30:41;;;;;;;22.08;4.25;;;5.60;99.90;;;;;;5036814;28;20040;-66
2024/02/02 07:33:45;;;;;;;15.38;5.05;;;5.60;99.90;;;;;;5037249;28;20173;-66
2024/02/02 07:36:21;;;;;;;19.95;4.50;;;5.60;99.90;;;;;;5036416;28;20494;-66
2024/02/02 07:38:53;;;;;;;14.40;4.90;;;5.60;99.90;;;;;;5039580;28;20955;-66
2024/02/02 07:41:24;;;;;;;12.48;5.15;;;5.60;99.90;;;;;;5038861;28;20074;-66
2024/02/02 07:43:54;;;;;;;16.73;4.93;;;5.60;99.90;;;;;;5038631;28;20029;-66
2024/02/02 07:46:20;;;;;;;22.05;5.72;;;5.60;99.90;;;;;;5034454;28;20025;-67
2024/02/02 07:48:49;;;;;;;16.23;4.30;;;5.60;99.90;;;;;;5038698;28;20452;-66
2024/02/02 07:51:22;;;;;;;22.80;5.38;;;5.70;99.90;;;;;;5038650;28;20025;-66
2024/02/02 07:53:48;;;;;;;19.25;5.07;;;5.70;99.90;;;;;;5038230;28;20108;-67
2024/02/02 07:56:15;;;;;;;14.32;5.00;;;5.80;99.90;;;;;;5036658;28;20083;-66
2024/02/02 07:58:40;;;;;;;16.55;3.95;;;5.80;99.90;;;;;;5032498;28;20131;-67
2024/02/02 08:01:10;;;;;;;18.67;4.30;;;5.80;99.90;;;;;;5030172;28;20216;-66
2024/02/02 08:03:36;;;;;;;10.55;4.13;;;5.80;99.90;;;;;;5036538;28;20113;-66
2024/02/02 08:06:02;;;;;;;14.05;3.22;;;5.90;99.90;;;;;;5031263;28;20071;-67
2024/02/02 08:08:31;;;;;;;10.90;3.33;;;5.90;99.90;;;;;;5032413;28;20041;-66
2024/02/02 08:10:57;;;;;;;27.33;4.85;;;5.90;99.90;;;;;;5013646;28;20484;-66
2024/02/02 08:13:23;;;;;;;21.40;6.15;;;5.90;99.90;;;;;;5028602;28;20408;-67
2024/02/02 08:15:48;;;;;;;18.17;5.88;;;5.90;99.90;;;;;;5032027;28;20029;-66
2024/02/02 08:18:14;;;;;;;16.20;5.45;;;6.00;99.90;;;;;;5030179;28;20030;-66
2024/02/02 08:20:40;;;;;;;21.38;5.55;;;6.00;99.90;;;;;;5033370;28;20036;-66
2024/02/02 08:23:06;;;;;;;15.70;4.93;;;6.00;99.90;;;;;;5032401;28;20052;-67
2024/02/02 08:25:32;;;;;;;12.73;4.00;;;6.10;99.90;;;;;;5032615;28;20486;-66
2024/02/02 08:27:57;;;;;;;18.60;5.18;;;6.10;99.90;;;;;;5033412;28;20111;-66
2024/02/02 08:30:23;;;;;;;15.73;5.05;;;6.10;99.90;;;;;;5037890;28;20036;-66
2024/02/02 08:32:51;;;;;;;17.95;4.43;;;6.10;99.90;;;;;;5037886;28;20445;-67
2024/02/02 08:35:21;;;;;;;23.83;4.50;;;6.10;99.90;;;;;;5038003;28;20040;-67
2024/02/02 08:37:50;;;;;;;16.10;3.70;;;6.20;99.90;;;;;;5037906;28;20167;-67
2024/02/02 08:40:25;;;;;;;18.00;3.78;;;6.20;99.90;;;;;;5038111;28;20388;-66
2024/02/02 08:42:50;;;;;;;11.23;3.38;;;6.30;99.90;;;;;;5037735;28;20021;-66
2024/02/02 08:45:41;;;;;;;18.80;5.10;;;6.30;99.80;;;;;;5038093;28;20382;-66
2024/02/02 08:48:35;;;;;;;12.65;3.50;;;6.40;99.50;;;;;;5035115;28;20111;-66
2024/02/02 08:51:01;;;;;;;16.92;4.03;;;6.50;99.20;;;;;;5037192;28;20025;-66
2024/02/02 08:53:27;;;;;;;20.40;5.28;;;6.50;99.00;;;;;;5032662;28;20025;-66
2024/02/02 08:55:58;;;;;;;23.40;5.55;;;6.50;98.70;;;;;;5037282;28;20040;-66
2024/02/02 08:58:31;;;;;;;17.63;5.50;;;6.60;98.30;;;;;;5037288;28;20445;-66
2024/02/02 09:00:57;;;;;;;14.30;4.47;;;6.60;97.90;;;;;;5033295;28;20033;-66
2024/02/02 09:03:28;;;;;;;18.45;4.13;;;6.60;98.00;;;;;;5037334;28;20165;-67
2024/02/02 09:05:58;;;;;;;13.32;4.07;;;6.70;97.60;;;;;;5036776;28;20021;-66
2024/02/02 09:08:31;;;;;;;11.30;4.35;;;6.80;97.80;;;;;;5033430;28;20600;-67
2024/02/02 09:10:57;;;;;;;12.00;4.28;;;6.80;97.70;;;;;;5031688;28;20029;-66
2024/02/02 09:13:34;;;;;;;16.70;4.03;;;6.90;97.40;;;;;;5031365;28;20159;-66
2024/02/02 09:15:59;;;;;;;10.23;3.63;;;6.80;96.70;;;;;;5037619;28;20025;-67
2024/02/02 09:18:33;;;;;;;14.27;4.00;;;6.80;96.90;;;;;;5036922;28;20043;-66
2024/02/02 09:21:00;;;;;;;20.05;5.25;;;6.80;97.10;;;;;;5037528;28;20052;-66
2024/02/02 09:23:26;;;;;;;19.73;5.10;;;6.80;97.20;;;;;;5037231;28;20106;-66
2024/02/02 09:25:52;;;;;;;14.90;5.13;;;6.70;96.90;;;;;;5038611;28;20036;-67
2024/02/02 09:28:29;;;;;;;17.48;5.35;;;6.60;97.10;;;;;;5039085;28;20394;-67
2024/02/02 09:30:59;;;;;;;12.32;4.85;;;6.60;97.20;;;;;;5034192;28;20048;-66
2024/02/02 09:33:31;;;;;;;19.13;5.05;;;6.60;97.20;;;;;;5037107;28;20029;-67
2024/02/02 09:35:57;;;;;;;20.42;5.38;;;6.60;97.20;;;;;;5036990;28;20055;-67
2024/02/02 09:38:27;;;;;;;13.02;4.10;;;6.50;97.10;;;;;;5037072;28;20029;-66
2024/02/02 09:41:01;;;;;;;20.38;5.13;;;6.50;97.30;;;;;;5037347;28;20759;-66
2024/02/02 09:43:48;;;;;;;13.45;3.95;;;6.60;97.60;;;;;;5029195;28;20036;-67
2024/02/02 09:46:38;;;;;;;18.42;4.93;;;6.60;97.80;;;;;;5037253;28;20032;-66
2024/02/02 09:49:34;;;;;;;14.02;4.55;;;6.60;97.90;;;;;;5035619;28;20028;-67
2024/02/02 09:52:18;;;;;;;21.35;6.15;;;6.60;98.10;;;;;;5034240;28;20029;-68
2024/02/02 09:55:11;;;;;;;10.05;3.65;;;6.60;98.20;;;;;;5037361;28;20035;-67
2024/02/02 09:57:49;;;;;;;14.77;4.03;;;6.70;98.30;;;;;;5034734;28;20116;-67
2024/02/02 10:00:32;;;;;;;14.70;5.22;;;6.70;98.10;;;;;;5033879;28;20063;-67
2024/02/02 10:03:34;;;;;;;13.43;4.50;;;6.70;98.30;;;;;;5030919;28;20041;-66
2024/02/02 10:05:59;;;;;;;14.40;5.15;;;6.70;98.20;;;;;;5031187;28;20029;-67
2024/02/02 10:09:12;;;;;;;21.73;6.45;;;6.80;98.40;;;;;;5024231;28;20044;-67
2024/02/02 10:11:56;;;;;;;18.80;6.80;;;6.80;98.20;;;;;;5008937;28;20651;-66
2024/02/02 10:14:33;;;;;;;12.07;4.88;;;6.80;98.20;;;;;;5013756;28;20057;-67
2024/02/02 10:17:40;;;;;;;11.18;4.20;;;6.90;98.60;;;;;;5011324;28;20061;-67
2024/02/02 10:20:26;;;;;;;14.52;5.13;;;6.90;98.70;;;;;;5024383;28;20036;-67
2024/02/02 10:23:26;;;;;;;25.27;6.03;;;6.90;98.80;;;;;;5021080;28;20034;-67
2024/02/02 10:26:28;;;;;;;17.27;5.47;;;7.00;98.90;;;;;;5020747;28;20040;-67
2024/02/02 10:29:23;;;;;;;9.55;4.20;;;7.00;98.90;;;;;;5025467;28;20100;-67
2024/02/02 10:32:03;;;;;;;16.38;5.57;;;7.20;99.20;;;;;;5000350;28;20099;-67
2024/02/02 10:34:54;;;;;;;16.52;6.22;;;7.20;99.20;;;;;;5028463;28;20053;-67
2024/02/02 10:37:37;;;;;;;15.75;5.15;;;7.20;99.00;;;;;;5023288;28;20033;-66
2024/02/02 10:40:06;;;;;;;16.33;5.22;;;7.20;98.90;;;;;;5024341;28;20030;-66
2024/02/02 10:43:05;;;;;;;18.55;5.20;;;7.30;99.10;;;;;;5023121;28;20033;-67
2024/02/02 10:45:50;;;;;;;14.57;4.32;;;7.40;99.00;;;;;;5014848;28;20203;-67
2024/02/02 10:48:31;;;;;;;13.07;4.78;;;7.50;98.90;;;;;;5027642;28;20151;-66
2024/02/02 10:51:24;;;;;;;10.95;4.03;;;7.70;98.90;;;;;;5018647;28;20028;-67
2024/02/02 10:54:16;;;;;;;11.57;3.90;;;7.70;98.50;;;;;;5026879;28;20120;-68
2024/02/02 10:57:13;;;;;;;13.43;3.78;;;7.80;97.60;;;;;;5021826;28;20522;-67
2024/02/02 11:00:14;;;;;;;9.18;4.22;;;7.80;97.50;;;;;;5024528;28;20093;-67
2024/02/02 11:03:05;;;;;;;15.52;3.78;;;7.80;97.50;;;;;;5019833;28;20520;-67
2024/02/02 11:05:49;;;;;;;10.50;3.60;;;7.90;97.50;;;;;;5019133;28;20514;-69
2024/02/02 11:08:18;;;;;;;13.88;3.90;;;7.90;97.30;;;;;;5037701;28;20033;-68
2024/02/02 11:10:58;;;;;;;15.98;4.07;;;8.00;96.60;;;;;;5037693;28;20033;-67
2024/02/02 11:13:27;;;;;;;11.88;3.50;;;8.00;96.30;;;;;;5029397;28;20025;-68
2024/02/02 11:16:07;;;;;;;7.75;3.50;;;8.00;95.20;;;;;;5039137;28;20418;-67
2024/02/02 11:19:13;;;;;;;10.20;4.03;;;8.10;96.00;;;;;;5035013;28;20069;-67
2024/02/02 11:21:47;;;;;;;14.07;3.20;;;8.20;95.30;;;;;;5037556;28;20139;-67
2024/02/02 11:24:21;;;;;;;5.65;3.20;;;8.20;94.40;;;;;;5039076;28;20017;-67
2024/02/02 11:27:17;;;;;;;10.98;3.05;;;8.20;93.70;;;;;;5040654;28;20017;-67
2024/02/02 11:29:45;;;;;;;9.75;3.03;;;8.30;93.50;;;;;;5038072;28;20021;-68
2024/02/02 11:32:39;;;;;;;9.45;2.72;;;8.30;93.10;;;;;;5036242;28;20037;-67
2024/02/02 11:35:20;;;;;;;16.83;3.67;;;8.40;93.10;;;;;;5027881;28;20033;-67
2024/02/02 11:38:14;;;;;;;8.23;2.92;;;8.50;92.90;;;;;;5032392;28;20029;-67
2024/02/02 11:40:42;;;;;;;9.57;2.67;;;8.50;92.00;;;;;;5034469;28;20049;-67
2024/02/02 11:43:10;;;;;;;9.93;2.92;;;8.50;91.60;;;;;;5038640;28;20266;-67
2024/02/02 11:45:39;;;;;;;10.20;3.00;;;8.50;90.90;;;;;;5038364;28;20028;-67
2024/02/02 11:48:08;;;;;;;11.75;3.03;;;8.50;90.80;;;;;;5038432;28;20528;-67
2024/02/02 11:50:41;;;;;;;5.78;2.78;;;8.50;90.30;;;;;;5037562;28;20025;-67
2024/02/02 11:53:42;;;;;;;10.18;3.28;;;8.50;90.30;;;;;;5032330;28;20032;-67
2024/02/02 11:56:20;;;;;;;12.50;3.25;;;8.50;89.90;;;;;;5018749;28;20725;-68
2024/02/02 11:58:55;;;;;;;13.00;3.38;;;8.40;88.80;;;;;;5038617;28;20375;-67
2024/02/02 12:31:07;;;;;;;9.90;3.70;;;8.20;84.40;;;;;;5116618;27;20431;-55
2024/02/02 12:33:33;;;;;;;13.38;5.22;;;8.40;84.80;;;;;;5103153;28;20112;-58
2024/02/02 12:35:59;;;;;;;14.40;4.20;;;8.30;85.70;;;;;;5103114;28;20028;-54
2024/02/02 12:38:24;;;;;;;12.60;4.40;;;8.30;86.10;;;;;;5103206;28;20049;-61
2024/02/02 12:40:50;;;;;;;8.75;3.60;;;8.20;85.70;;;;;;5103100;28;20071;-61
2024/02/02 12:43:25;;;;;;;15.52;5.47;;;8.10;86.10;;;;;;5103562;28;20016;-61
2024/02/02 12:45:53;;;;;;;12.23;4.38;;;8.00;85.80;;;;;;5101229;28;20509;-61
2024/02/02 12:48:19;;;;;;;11.93;4.38;;;8.00;86.00;;;;;;5099427;28;20024;-61
2024/02/02 12:50:45;;;;;;;12.50;4.13;;;8.00;86.20;;;;;;5086920;28;20024;-60
2024/02/02 12:53:11;;;;;;;12.73;3.95;;;8.00;86.10;;;;;;5091742;28;20034;-59
2024/02/02 12:55:36;;;;;;;15.77;4.22;;;8.00;86.00;;;;;;5091215;28;20466;-60
2024/02/02 12:58:02;;;;;;;9.85;3.70;;;8.00;86.00;;;;;;5092309;28;20066;-60
2024/02/02 13:00:28;;;;;;;9.52;3.55;;;8.00;86.30;;;;;;5093955;28;20496;-60
2024/02/02 13:02:53;;;;;;;8.98;3.95;;;7.90;86.30;;;;;;5088563;28;20506;-61
2024/02/02 13:05:19;;;;;;;13.35;4.43;;;7.90;85.70;;;;;;5090109;28;20020;-59
2024/02/02 13:07:50;;;;;;;12.85;4.07;;;7.90;86.10;;;;;;5088660;28;20536;-60
2024/02/02 13:10:34;;;;;;;13.13;4.43;;;7.90;86.20;;;;;;5091945;28;20030;-59
2024/02/02 13:13:19;;;;;;;15.40;4.63;;;7.80;85.90;;;;;;5092607;28;20031;-60
2024/02/02 13:15:45;;;;;;;14.55;4.50;;;7.80;86.30;;;;;;5090884;28;20027;-60
2024/02/02 13:18:18;;;;;;;13.32;4.97;;;7.70;86.50;;;;;;5085963;28;20114;-60
2024/02/02 13:20:46;;;;;;;13.57;4.65;;;7.70;86.90;;;;;;5084809;28;20024;-59
2024/02/02 13:23:20;;;;;;;13.02;3.90;;;7.60;87.20;;;;;;5084456;28;20544;-60
2024/02/02 13:25:51;;;;;;;9.63;3.92;;;7.50;87.20;;;;;;5090022;28;20024;-59
2024/02/02 13:28:18;;;;;;;10.30;3.53;;;7.50;87.70;;;;;;5082458;28;20051;-59
2024/02/02 13:31:04;;;;;;;9.73;3.53;;;7.50;88.00;;;;;;5083698;28;20040;-59
2024/02/02 13:33:31;;;;;;;10.70;4.07;;;7.50;88.40;;;;;;5071002;28;20498;-60
2024/02/02 13:36:03;;;;;;;11.95;4.32;;;7.50;88.50;;;;;;5078374;28;20452;-60
2024/02/02 13:38:32;;;;;;;17.40;4.75;;;7.50;88.50;;;;;;5077647;28;20024;-60